<?xml version="1.0" encoding="UTF-8" standalone="no" ?>
<gpx xmlns="http://www.topografix.com/GPX/1/1" xmlns:xsi="http://www.w3.org/2001/XMLSchema-instance" xsi:schemaLocation="http://www.topografix.com/GPX/1/1 http://www.topografix.com/GPX/1/1/gpx.xsd" version="1.1" creator="VisuGPX - https://www.visugpx.com">
  <metadata>
    <name>Montflanquin Gravel</name>
    <desc><![CDATA[Hors asphalte gravel OK (testé avec Diverge 4, pneus 50mm)]]></desc>
  </metadata>
  <wpt lat="44.5662" lon="0.73317">
    <ele>120.6</ele>
    <name><![CDATA[David haut/bas]]></name>
  </wpt>
  <wpt lat="44.55013" lon="0.85946">
    <ele>126.4</ele>
  </wpt>
  <trk>
    <name><![CDATA[Montflanquin Gravel_20]]></name>
    <trkseg>
      <trkpt lat="44.57416" lon="0.85308">
        <ele>177.8</ele>
        <time>2026-08-23T07:16:36Z</time>
      </trkpt>
      <trkpt lat="44.57421" lon="0.85311">
        <ele>178</ele>
        <time>2026-08-23T07:16:37Z</time>
      </trkpt>
      <trkpt lat="44.57426" lon="0.85315">
        <ele>177.8</ele>
        <time>2026-08-23T07:16:38Z</time>
      </trkpt>
      <trkpt lat="44.57432" lon="0.8532">
        <ele>177.8</ele>
        <time>2026-08-23T07:16:39Z</time>
      </trkpt>
      <trkpt lat="44.57438" lon="0.85324">
        <ele>177.6</ele>
        <time>2026-08-23T07:16:40Z</time>
      </trkpt>
      <trkpt lat="44.57443" lon="0.85327">
        <ele>177.6</ele>
        <time>2026-08-23T07:16:41Z</time>
      </trkpt>
      <trkpt lat="44.57448" lon="0.85331">
        <ele>177.4</ele>
        <time>2026-08-23T07:16:42Z</time>
      </trkpt>
      <trkpt lat="44.57453" lon="0.85335">
        <ele>177.2</ele>
        <time>2026-08-23T07:16:43Z</time>
      </trkpt>
      <trkpt lat="44.57458" lon="0.85339">
        <ele>176.8</ele>
        <time>2026-08-23T07:16:44Z</time>
      </trkpt>
      <trkpt lat="44.57463" lon="0.85343">
        <ele>176.6</ele>
        <time>2026-08-23T07:16:45Z</time>
      </trkpt>
      <trkpt lat="44.57468" lon="0.85347">
        <ele>176.6</ele>
        <time>2026-08-23T07:16:46Z</time>
      </trkpt>
      <trkpt lat="44.57472" lon="0.85351">
        <ele>176.4</ele>
        <time>2026-08-23T07:16:47Z</time>
      </trkpt>
      <trkpt lat="44.57477" lon="0.85355">
        <ele>176.2</ele>
        <time>2026-08-23T07:16:48Z</time>
      </trkpt>
      <trkpt lat="44.57482" lon="0.85359">
        <ele>175.8</ele>
        <time>2026-08-23T07:16:49Z</time>
      </trkpt>
      <trkpt lat="44.57486" lon="0.85364">
        <ele>175.6</ele>
        <time>2026-08-23T07:16:50Z</time>
      </trkpt>
      <trkpt lat="44.57491" lon="0.85369">
        <ele>175.6</ele>
        <time>2026-08-23T07:16:51Z</time>
      </trkpt>
      <trkpt lat="44.57495" lon="0.85374">
        <ele>175.4</ele>
        <time>2026-08-23T07:16:52Z</time>
      </trkpt>
      <trkpt lat="44.57499" lon="0.8538">
        <ele>175.4</ele>
        <time>2026-08-23T07:16:53Z</time>
      </trkpt>
      <trkpt lat="44.57503" lon="0.85386">
        <ele>175.2</ele>
        <time>2026-08-23T07:16:54Z</time>
      </trkpt>
      <trkpt lat="44.57507" lon="0.85391">
        <ele>175</ele>
        <time>2026-08-23T07:16:55Z</time>
      </trkpt>
      <trkpt lat="44.57511" lon="0.85396">
        <ele>174.8</ele>
        <time>2026-08-23T07:16:56Z</time>
      </trkpt>
      <trkpt lat="44.57516" lon="0.85401">
        <ele>174.8</ele>
        <time>2026-08-23T07:16:57Z</time>
      </trkpt>
      <trkpt lat="44.5752" lon="0.85405">
        <ele>174.8</ele>
        <time>2026-08-23T07:16:58Z</time>
      </trkpt>
      <trkpt lat="44.57525" lon="0.85409">
        <ele>174.8</ele>
        <time>2026-08-23T07:16:59Z</time>
      </trkpt>
      <trkpt lat="44.5753" lon="0.85413">
        <ele>175</ele>
        <time>2026-08-23T07:17:00Z</time>
      </trkpt>
      <trkpt lat="44.57535" lon="0.85416">
        <ele>175.2</ele>
        <time>2026-08-23T07:17:01Z</time>
      </trkpt>
      <trkpt lat="44.57538" lon="0.85418">
        <ele>175.2</ele>
        <time>2026-08-23T07:17:02Z</time>
      </trkpt>
      <trkpt lat="44.57542" lon="0.8542">
        <ele>175.2</ele>
        <time>2026-08-23T07:17:03Z</time>
      </trkpt>
      <trkpt lat="44.57546" lon="0.85422">
        <ele>175.2</ele>
        <time>2026-08-23T07:17:04Z</time>
      </trkpt>
      <trkpt lat="44.5755" lon="0.85424">
        <ele>175.4</ele>
        <time>2026-08-23T07:17:05Z</time>
      </trkpt>
      <trkpt lat="44.57553" lon="0.85426">
        <ele>175.4</ele>
        <time>2026-08-23T07:17:06Z</time>
      </trkpt>
      <trkpt lat="44.57556" lon="0.85428">
        <ele>175.4</ele>
        <time>2026-08-23T07:17:07Z</time>
      </trkpt>
      <trkpt lat="44.57559" lon="0.8543">
        <ele>175.6</ele>
        <time>2026-08-23T07:17:08Z</time>
      </trkpt>
      <trkpt lat="44.57562" lon="0.85432">
        <ele>175.8</ele>
        <time>2026-08-23T07:17:09Z</time>
      </trkpt>
      <trkpt lat="44.57565" lon="0.85433">
        <ele>176.2</ele>
        <time>2026-08-23T07:17:10Z</time>
      </trkpt>
      <trkpt lat="44.57568" lon="0.85435">
        <ele>176.4</ele>
        <time>2026-08-23T07:17:11Z</time>
      </trkpt>
      <trkpt lat="44.5757" lon="0.85437">
        <ele>176.6</ele>
        <time>2026-08-23T07:17:12Z</time>
      </trkpt>
      <trkpt lat="44.57573" lon="0.85439">
        <ele>177</ele>
        <time>2026-08-23T07:17:13Z</time>
      </trkpt>
      <trkpt lat="44.57575" lon="0.85441">
        <ele>177.4</ele>
        <time>2026-08-23T07:17:14Z</time>
      </trkpt>
      <trkpt lat="44.57578" lon="0.85442">
        <ele>177.8</ele>
        <time>2026-08-23T07:17:15Z</time>
      </trkpt>
      <trkpt lat="44.5758" lon="0.85444">
        <ele>178.2</ele>
        <time>2026-08-23T07:17:16Z</time>
      </trkpt>
      <trkpt lat="44.57583" lon="0.85446">
        <ele>178.6</ele>
        <time>2026-08-23T07:17:17Z</time>
      </trkpt>
      <trkpt lat="44.57585" lon="0.85448">
        <ele>179.2</ele>
        <time>2026-08-23T07:17:18Z</time>
      </trkpt>
      <trkpt lat="44.57588" lon="0.85449">
        <ele>179.4</ele>
        <time>2026-08-23T07:17:19Z</time>
      </trkpt>
      <trkpt lat="44.57591" lon="0.85451">
        <ele>179.6</ele>
        <time>2026-08-23T07:17:20Z</time>
      </trkpt>
      <trkpt lat="44.57593" lon="0.85453">
        <ele>180.2</ele>
        <time>2026-08-23T07:17:21Z</time>
      </trkpt>
      <trkpt lat="44.57596" lon="0.85455">
        <ele>180.4</ele>
        <time>2026-08-23T07:17:22Z</time>
      </trkpt>
      <trkpt lat="44.57599" lon="0.85456">
        <ele>180.6</ele>
        <time>2026-08-23T07:17:23Z</time>
      </trkpt>
      <trkpt lat="44.57601" lon="0.85458">
        <ele>180.8</ele>
        <time>2026-08-23T07:17:24Z</time>
      </trkpt>
      <trkpt lat="44.57604" lon="0.8546">
        <ele>181.2</ele>
        <time>2026-08-23T07:17:25Z</time>
      </trkpt>
      <trkpt lat="44.57606" lon="0.85461">
        <ele>181.4</ele>
        <time>2026-08-23T07:17:26Z</time>
      </trkpt>
      <trkpt lat="44.57608" lon="0.85463">
        <ele>181.6</ele>
        <time>2026-08-23T07:17:27Z</time>
      </trkpt>
      <trkpt lat="44.57609" lon="0.85464">
        <ele>181.8</ele>
        <time>2026-08-23T07:17:28Z</time>
      </trkpt>
      <trkpt lat="44.57611" lon="0.85465">
        <ele>182.2</ele>
        <time>2026-08-23T07:17:29Z</time>
      </trkpt>
      <trkpt lat="44.57612" lon="0.85467">
        <ele>182.2</ele>
        <time>2026-08-23T07:17:30Z</time>
      </trkpt>
      <trkpt lat="44.57614" lon="0.85469">
        <ele>182.4</ele>
        <time>2026-08-23T07:17:31Z</time>
      </trkpt>
      <trkpt lat="44.57616" lon="0.85472">
        <ele>182.4</ele>
        <time>2026-08-23T07:17:32Z</time>
      </trkpt>
      <trkpt lat="44.57619" lon="0.85477">
        <ele>182.4</ele>
        <time>2026-08-23T07:17:33Z</time>
        <extensions>
          <visugpx:TrkExtension xmlns:visugpx="https://www.visugpx.com/editgpx/">
            <visugpx:node>1</visugpx:node>
            </visugpx:TrkExtension>
        </extensions>
      </trkpt>
    </trkseg>
  </trk>
</gpx>